sensor_id;sensor_type;location;lat;lon;timestamp;temperature;humidity
71367;DHT22;60030;52.274;8.040;2022-11-24T00:00:31;9.70;99.90
71367;DHT22;60030;52.274;8.040;2022-11-24T00:02:59;9.70;99.90
71367;DHT22;60030;52.274;8.040;2022-11-24T00:05:26;9.60;99.90
71367;DHT22;60030;52.274;8.040;2022-11-24T00:07:53;9.40;99.90
71367;DHT22;60030;52.274;8.040;2022-11-24T00:10:20;9.40;99.90
71367;DHT22;60030;52.274;8.040;2022-11-24T00:12:47;9.50;99.90
71367;DHT22;60030;52.274;8.040;2022-11-24T00:15:14;9.50;99.90
71367;DHT22;60030;52.274;8.040;2022-11-24T00:17:42;9.60;99.90
71367;DHT22;60030;52.274;8.040;2022-11-24T00:20:10;9.30;99.90
71367;DHT22;60030;52.274;8.040;2022-11-24T00:22:37;9.40;99.90
71367;DHT22;60030;52.274;8.040;2022-11-24T00:25:05;9.50;99.90
71367;DHT22;60030;52.274;8.040;2022-11-24T00:27:32;9.40;99.90
71367;DHT22;60030;52.274;8.040;2022-11-24T00:29:59;9.40;99.90
71367;DHT22;60030;52.274;8.040;2022-11-24T00:32:27;9.30;99.90
71367;DHT22;60030;52.274;8.040;2022-11-24T00:34:54;9.50;99.90
71367;DHT22;60030;52.274;8.040;2022-11-24T00:37:22;9.40;99.90
71367;DHT22;60030;52.274;8.040;2022-11-24T00:39:50;9.40;99.90
71367;DHT22;60030;52.274;8.040;2022-11-24T00:42:17;9.30;99.90
71367;DHT22;60030;52.274;8.040;2022-11-24T00:44:44;9.40;99.90
71367;DHT22;60030;52.274;8.040;2022-11-24T00:47:11;9.30;99.90
71367;DHT22;60030;52.274;8.040;2022-11-24T00:49:38;9.20;99.90
71367;DHT22;60030;52.274;8.040;2022-11-24T00:52:05;9.20;99.90
71367;DHT22;60030;52.274;8.040;2022-11-24T00:54:33;9.20;99.90
71367;DHT22;60030;52.274;8.040;2022-11-24T00:57:00;9.30;99.90
71367;DHT22;60030;52.274;8.040;2022-11-24T00:59:27;9.30;99.90
71367;DHT22;60030;52.274;8.040;2022-11-24T01:01:57;9.30;99.90
71367;DHT22;60030;52.274;8.040;2022-11-24T01:04:24;9.20;99.90
71367;DHT22;60030;52.274;8.040;2022-11-24T01:06:51;9.20;99.90
71367;DHT22;60030;52.274;8.040;2022-11-24T01:09:18;9.20;99.90
71367;DHT22;60030;52.274;8.040;2022-11-24T01:11:46;9.10;99.90
71367;DHT22;60030;52.274;8.040;2022-11-24T01:14:30;9.10;99.90
71367;DHT22;60030;52.274;8.040;2022-11-24T01:16:57;9.10;99.90
71367;DHT22;60030;52.274;8.040;2022-11-24T01:19:24;9.00;99.90
71367;DHT22;60030;52.274;8.040;2022-11-24T01:21:51;9.10;99.90
71367;DHT22;60030;52.274;8.040;2022-11-24T01:24:18;9.10;99.90
71367;DHT22;60030;52.274;8.040;2022-11-24T01:26:47;9.10;99.90
71367;DHT22;60030;52.274;8.040;2022-11-24T01:29:15;9.00;99.90
71367;DHT22;60030;52.274;8.040;2022-11-24T01:31:42;9.00;99.90
71367;DHT22;60030;52.274;8.040;2022-11-24T01:34:09;9.00;99.90
71367;DHT22;60030;52.274;8.040;2022-11-24T01:36:37;9.00;99.90
71367;DHT22;60030;52.274;8.040;2022-11-24T01:39:05;9.00;99.90
71367;DHT22;60030;52.274;8.040;2022-11-24T01:41:33;9.00;99.90
71367;DHT22;60030;52.274;8.040;2022-11-24T01:44:20;9.10;99.90
71367;DHT22;60030;52.274;8.040;2022-11-24T01:46:50;9.00;99.90
71367;DHT22;60030;52.274;8.040;2022-11-24T01:49:21;9.10;99.90
71367;DHT22;60030;52.274;8.040;2022-11-24T01:51:53;9.00;99.90
71367;DHT22;60030;52.274;8.040;2022-11-24T01:54:24;9.00;99.90
71367;DHT22;60030;52.274;8.040;2022-11-24T01:56:54;9.10;99.90
71367;DHT22;60030;52.274;8.040;2022-11-24T01:59:25;9.00;99.90
71367;DHT22;60030;52.274;8.040;2022-11-24T02:01:53;9.00;99.90
71367;DHT22;60030;52.274;8.040;2022-11-24T02:04:25;9.00;99.90
71367;DHT22;60030;52.274;8.040;2022-11-24T02:06:56;9.00;99.90
71367;DHT22;60030;52.274;8.040;2022-11-24T02:09:28;8.90;99.90
71367;DHT22;60030;52.274;8.040;2022-11-24T02:11:58;8.90;99.90
71367;DHT22;60030;52.274;8.040;2022-11-24T02:14:27;9.00;99.90
71367;DHT22;60030;52.274;8.040;2022-11-24T02:16:54;8.90;99.90
71367;DHT22;60030;52.274;8.040;2022-11-24T02:19:30;9.00;99.90
71367;DHT22;60030;52.274;8.040;2022-11-24T02:22:00;9.00;99.90
71367;DHT22;60030;52.274;8.040;2022-11-24T02:24:32;9.00;99.90
71367;DHT22;60030;52.274;8.040;2022-11-24T02:27:04;9.00;99.90
71367;DHT22;60030;52.274;8.040;2022-11-24T02:29:32;8.90;99.90
71367;DHT22;60030;52.274;8.040;2022-11-24T02:32:02;9.00;99.90
71367;DHT22;60030;52.274;8.040;2022-11-24T02:34:32;8.90;99.90
71367;DHT22;60030;52.274;8.040;2022-11-24T02:36:59;9.00;99.90
71367;DHT22;60030;52.274;8.040;2022-11-24T02:39:26;8.90;99.90
71367;DHT22;60030;52.274;8.040;2022-11-24T02:41:57;8.90;99.90
71367;DHT22;60030;52.274;8.040;2022-11-24T02:44:29;8.90;99.90
71367;DHT22;60030;52.274;8.040;2022-11-24T02:47:02;8.90;99.90
71367;DHT22;60030;52.274;8.040;2022-11-24T02:49:30;8.90;99.90
71367;DHT22;60030;52.274;8.040;2022-11-24T02:51:57;8.90;99.90
71367;DHT22;60030;52.274;8.040;2022-11-24T02:54:24;8.90;99.90
71367;DHT22;60030;52.274;8.040;2022-11-24T02:56:51;8.90;99.90
71367;DHT22;60030;52.274;8.040;2022-11-24T02:59:19;8.80;99.90
71367;DHT22;60030;52.274;8.040;2022-11-24T03:01:47;8.80;99.90
71367;DHT22;60030;52.274;8.040;2022-11-24T03:04:14;8.90;99.90
71367;DHT22;60030;52.274;8.040;2022-11-24T03:06:41;9.00;99.90
71367;DHT22;60030;52.274;8.040;2022-11-24T03:09:09;8.90;99.90
71367;DHT22;60030;52.274;8.040;2022-11-24T03:11:36;8.90;99.90
71367;DHT22;60030;52.274;8.040;2022-11-24T03:14:04;8.80;99.90
71367;DHT22;60030;52.274;8.040;2022-11-24T03:16:32;8.80;99.90
71367;DHT22;60030;52.274;8.040;2022-11-24T03:19:00;8.80;99.90
71367;DHT22;60030;52.274;8.040;2022-11-24T03:21:28;8.80;99.90
71367;DHT22;60030;52.274;8.040;2022-11-24T03:23:55;8.80;99.90
71367;DHT22;60030;52.274;8.040;2022-11-24T03:26:23;8.90;99.90
71367;DHT22;60030;52.274;8.040;2022-11-24T03:28:52;8.80;99.90
71367;DHT22;60030;52.274;8.040;2022-11-24T03:31:20;8.80;99.90
71367;DHT22;60030;52.274;8.040;2022-11-24T03:33:47;8.90;99.90
71367;DHT22;60030;52.274;8.040;2022-11-24T03:36:16;8.80;99.90
71367;DHT22;60030;52.274;8.040;2022-11-24T03:38:43;8.90;99.90
71367;DHT22;60030;52.274;8.040;2022-11-24T03:41:10;8.90;99.90
71367;DHT22;60030;52.274;8.040;2022-11-24T03:43:37;9.00;99.90
71367;DHT22;60030;52.274;8.040;2022-11-24T03:46:05;8.90;99.90
71367;DHT22;60030;52.274;8.040;2022-11-24T03:48:32;8.80;99.90
71367;DHT22;60030;52.274;8.040;2022-11-24T03:51:00;8.90;99.90
71367;DHT22;60030;52.274;8.040;2022-11-24T03:53:30;9.00;99.90
71367;DHT22;60030;52.274;8.040;2022-11-24T03:55:58;9.00;99.90
71367;DHT22;60030;52.274;8.040;2022-11-24T03:58:27;9.00;99.90
71367;DHT22;60030;52.274;8.040;2022-11-24T04:00:54;9.00;99.90
71367;DHT22;60030;52.274;8.040;2022-11-24T04:03:22;9.00;99.90
71367;DHT22;60030;52.274;8.040;2022-11-24T04:05:49;8.90;99.90
71367;DHT22;60030;52.274;8.040;2022-11-24T04:08:17;8.90;99.90
71367;DHT22;60030;52.274;8.040;2022-11-24T04:10:49;9.00;99.90
71367;DHT22;60030;52.274;8.040;2022-11-24T04:13:18;9.00;99.90
71367;DHT22;60030;52.274;8.040;2022-11-24T04:15:44;9.10;99.90
71367;DHT22;60030;52.274;8.040;2022-11-24T04:18:12;9.00;99.90
71367;DHT22;60030;52.274;8.040;2022-11-24T04:20:40;9.00;99.90
71367;DHT22;60030;52.274;8.040;2022-11-24T04:23:09;9.00;99.90
71367;DHT22;60030;52.274;8.040;2022-11-24T04:25:36;9.00;99.90
71367;DHT22;60030;52.274;8.040;2022-11-24T04:28:05;9.00;99.90
71367;DHT22;60030;52.274;8.040;2022-11-24T04:30:32;9.00;99.90
71367;DHT22;60030;52.274;8.040;2022-11-24T04:32:59;9.00;99.90
71367;DHT22;60030;52.274;8.040;2022-11-24T04:35:26;9.00;99.90
71367;DHT22;60030;52.274;8.040;2022-11-24T04:37:54;9.00;99.90
71367;DHT22;60030;52.274;8.040;2022-11-24T04:40:21;8.90;99.90
71367;DHT22;60030;52.274;8.040;2022-11-24T04:42:52;9.00;99.90
71367;DHT22;60030;52.274;8.040;2022-11-24T04:45:21;9.10;99.90
71367;DHT22;60030;52.274;8.040;2022-11-24T04:47:48;9.10;99.90
71367;DHT22;60030;52.274;8.040;2022-11-24T04:50:16;9.10;99.90
71367;DHT22;60030;52.274;8.040;2022-11-24T04:52:43;9.10;99.90
71367;DHT22;60030;52.274;8.040;2022-11-24T04:55:10;9.10;99.90
71367;DHT22;60030;52.274;8.040;2022-11-24T04:57:38;9.20;99.90
71367;DHT22;60030;52.274;8.040;2022-11-24T05:00:06;9.20;99.90
71367;DHT22;60030;52.274;8.040;2022-11-24T05:02:35;9.10;99.90
71367;DHT22;60030;52.274;8.040;2022-11-24T05:05:03;9.20;99.90
71367;DHT22;60030;52.274;8.040;2022-11-24T05:07:30;9.20;99.90
71367;DHT22;60030;52.274;8.040;2022-11-24T05:09:57;9.20;99.90
71367;DHT22;60030;52.274;8.040;2022-11-24T05:12:42;9.20;99.90
71367;DHT22;60030;52.274;8.040;2022-11-24T05:15:09;9.20;99.90
71367;DHT22;60030;52.274;8.040;2022-11-24T05:17:38;9.20;99.90
71367;DHT22;60030;52.274;8.040;2022-11-24T05:20:06;9.20;99.90
71367;DHT22;60030;52.274;8.040;2022-11-24T05:22:33;9.20;99.90
71367;DHT22;60030;52.274;8.040;2022-11-24T05:25:01;9.20;99.90
71367;DHT22;60030;52.274;8.040;2022-11-24T05:27:28;9.20;99.90
71367;DHT22;60030;52.274;8.040;2022-11-24T05:29:55;9.20;99.90
71367;DHT22;60030;52.274;8.040;2022-11-24T05:32:22;9.20;99.90
71367;DHT22;60030;52.274;8.040;2022-11-24T05:34:51;9.20;99.90
71367;DHT22;60030;52.274;8.040;2022-11-24T05:37:19;9.20;99.90
71367;DHT22;60030;52.274;8.040;2022-11-24T05:39:47;9.10;99.90
71367;DHT22;60030;52.274;8.040;2022-11-24T05:42:14;9.20;99.90
71367;DHT22;60030;52.274;8.040;2022-11-24T05:44:58;9.20;99.90
71367;DHT22;60030;52.274;8.040;2022-11-24T05:47:26;9.20;99.90
71367;DHT22;60030;52.274;8.040;2022-11-24T05:49:54;9.20;99.90
71367;DHT22;60030;52.274;8.040;2022-11-24T05:52:21;9.30;99.90
71367;DHT22;60030;52.274;8.040;2022-11-24T05:54:48;9.20;99.90
71367;DHT22;60030;52.274;8.040;2022-11-24T05:57:15;9.20;99.90
71367;DHT22;60030;52.274;8.040;2022-11-24T05:59:42;9.10;99.90
71367;DHT22;60030;52.274;8.040;2022-11-24T06:02:10;9.10;99.90
71367;DHT22;60030;52.274;8.040;2022-11-24T06:04:37;9.20;99.90
71367;DHT22;60030;52.274;8.040;2022-11-24T06:07:08;9.20;99.90
71367;DHT22;60030;52.274;8.040;2022-11-24T06:09:35;9.30;99.90
71367;DHT22;60030;52.274;8.040;2022-11-24T06:12:03;9.30;99.90
71367;DHT22;60030;52.274;8.040;2022-11-24T06:14:30;9.30;99.90
71367;DHT22;60030;52.274;8.040;2022-11-24T06:16:57;9.30;99.90
71367;DHT22;60030;52.274;8.040;2022-11-24T06:19:25;9.30;99.90
71367;DHT22;60030;52.274;8.040;2022-11-24T06:21:52;9.30;99.90
71367;DHT22;60030;52.274;8.040;2022-11-24T06:24:20;9.30;99.90
71367;DHT22;60030;52.274;8.040;2022-11-24T06:26:47;9.30;99.90
71367;DHT22;60030;52.274;8.040;2022-11-24T06:29:15;9.20;99.90
71367;DHT22;60030;52.274;8.040;2022-11-24T06:31:42;9.30;99.90
71367;DHT22;60030;52.274;8.040;2022-11-24T06:34:11;9.30;99.90
71367;DHT22;60030;52.274;8.040;2022-11-24T06:36:38;9.40;99.90
71367;DHT22;60030;52.274;8.040;2022-11-24T06:39:06;9.40;99.90
71367;DHT22;60030;52.274;8.040;2022-11-24T06:41:34;9.40;99.90
71367;DHT22;60030;52.274;8.040;2022-11-24T06:44:02;9.40;99.90
71367;DHT22;60030;52.274;8.040;2022-11-24T06:46:30;9.30;99.90
71367;DHT22;60030;52.274;8.040;2022-11-24T06:48:57;9.40;99.90
71367;DHT22;60030;52.274;8.040;2022-11-24T06:51:25;9.40;99.90
71367;DHT22;60030;52.274;8.040;2022-11-24T06:53:53;9.50;99.90
71367;DHT22;60030;52.274;8.040;2022-11-24T06:56:20;9.50;99.90
71367;DHT22;60030;52.274;8.040;2022-11-24T06:58:50;9.50;99.90
71367;DHT22;60030;52.274;8.040;2022-11-24T07:01:19;9.50;99.90
71367;DHT22;60030;52.274;8.040;2022-11-24T07:03:46;9.40;99.90
71367;DHT22;60030;52.274;8.040;2022-11-24T07:06:14;9.40;99.90
71367;DHT22;60030;52.274;8.040;2022-11-24T07:08:42;9.40;99.90
71367;DHT22;60030;52.274;8.040;2022-11-24T07:11:10;9.40;99.90
71367;DHT22;60030;52.274;8.040;2022-11-24T07:13:40;9.40;99.90
71367;DHT22;60030;52.274;8.040;2022-11-24T07:16:13;9.40;99.90
71367;DHT22;60030;52.274;8.040;2022-11-24T07:18:41;9.40;99.90
71367;DHT22;60030;52.274;8.040;2022-11-24T07:21:08;9.40;99.90
71367;DHT22;60030;52.274;8.040;2022-11-24T07:23:36;9.50;99.90
71367;DHT22;60030;52.274;8.040;2022-11-24T07:26:03;9.50;99.90
71367;DHT22;60030;52.274;8.040;2022-11-24T07:28:31;9.60;99.90
71367;DHT22;60030;52.274;8.040;2022-11-24T07:31:04;9.50;99.90
71367;DHT22;60030;52.274;8.040;2022-11-24T07:33:32;9.60;99.90
71367;DHT22;60030;52.274;8.040;2022-11-24T07:36:00;9.60;99.90
71367;DHT22;60030;52.274;8.040;2022-11-24T07:38:28;9.70;99.90
71367;DHT22;60030;52.274;8.040;2022-11-24T07:40:58;9.60;99.90
71367;DHT22;60030;52.274;8.040;2022-11-24T07:43:26;9.70;99.90
71367;DHT22;60030;52.274;8.040;2022-11-24T07:45:53;9.70;99.90
71367;DHT22;60030;52.274;8.040;2022-11-24T07:48:20;9.70;99.90
71367;DHT22;60030;52.274;8.040;2022-11-24T07:50:48;9.70;99.90
71367;DHT22;60030;52.274;8.040;2022-11-24T07:53:15;9.70;99.90
71367;DHT22;60030;52.274;8.040;2022-11-24T07:55:43;9.70;99.90
71367;DHT22;60030;52.274;8.040;2022-11-24T07:58:10;9.60;99.90
71367;DHT22;60030;52.274;8.040;2022-11-24T08:00:37;9.70;99.90
71367;DHT22;60030;52.274;8.040;2022-11-24T08:03:04;9.80;99.90
71367;DHT22;60030;52.274;8.040;2022-11-24T08:05:31;9.90;99.90
71367;DHT22;60030;52.274;8.040;2022-11-24T08:08:00;9.80;99.90
71367;DHT22;60030;52.274;8.040;2022-11-24T08:10:27;9.80;99.90
71367;DHT22;60030;52.274;8.040;2022-11-24T08:12:54;9.90;99.90
71367;DHT22;60030;52.274;8.040;2022-11-24T08:15:25;10.00;99.90
71367;DHT22;60030;52.274;8.040;2022-11-24T08:17:52;9.90;99.90
71367;DHT22;60030;52.274;8.040;2022-11-24T08:20:20;9.90;99.90
71367;DHT22;60030;52.274;8.040;2022-11-24T08:22:47;10.00;99.90
71367;DHT22;60030;52.274;8.040;2022-11-24T08:25:16;10.00;99.90
71367;DHT22;60030;52.274;8.040;2022-11-24T08:27:43;10.00;99.90
71367;DHT22;60030;52.274;8.040;2022-11-24T08:30:11;10.00;99.90
71367;DHT22;60030;52.274;8.040;2022-11-24T08:32:38;10.00;99.90
71367;DHT22;60030;52.274;8.040;2022-11-24T08:35:06;10.10;99.90
71367;DHT22;60030;52.274;8.040;2022-11-24T08:37:33;10.10;99.90
71367;DHT22;60030;52.274;8.040;2022-11-24T08:40:00;10.10;99.90
71367;DHT22;60030;52.274;8.040;2022-11-24T08:42:29;10.00;99.90
71367;DHT22;60030;52.274;8.040;2022-11-24T08:44:56;10.00;99.90
71367;DHT22;60030;52.274;8.040;2022-11-24T08:47:23;10.10;99.90
71367;DHT22;60030;52.274;8.040;2022-11-24T08:49:50;10.00;99.90
71367;DHT22;60030;52.274;8.040;2022-11-24T08:52:17;10.10;99.90
71367;DHT22;60030;52.274;8.040;2022-11-24T08:54:44;10.10;99.90
71367;DHT22;60030;52.274;8.040;2022-11-24T08:57:13;10.10;99.90
71367;DHT22;60030;52.274;8.040;2022-11-24T08:59:41;10.00;99.90
71367;DHT22;60030;52.274;8.040;2022-11-24T09:02:10;10.00;99.90
71367;DHT22;60030;52.274;8.040;2022-11-24T09:04:37;10.00;99.90
71367;DHT22;60030;52.274;8.040;2022-11-24T09:07:04;10.00;99.90
71367;DHT22;60030;52.274;8.040;2022-11-24T09:09:31;10.10;99.90
71367;DHT22;60030;52.274;8.040;2022-11-24T09:11:58;10.00;99.90
71367;DHT22;60030;52.274;8.040;2022-11-24T09:14:25;10.20;99.90
71367;DHT22;60030;52.274;8.040;2022-11-24T09:16:54;10.20;99.90
71367;DHT22;60030;52.274;8.040;2022-11-24T09:19:21;10.20;99.90
71367;DHT22;60030;52.274;8.040;2022-11-24T09:21:48;10.10;99.90
71367;DHT22;60030;52.274;8.040;2022-11-24T09:24:16;10.20;99.90
71367;DHT22;60030;52.274;8.040;2022-11-24T09:26:43;10.10;99.90
71367;DHT22;60030;52.274;8.040;2022-11-24T09:29:10;10.20;99.90
71367;DHT22;60030;52.274;8.040;2022-11-24T09:31:37;10.30;99.90
71367;DHT22;60030;52.274;8.040;2022-11-24T09:34:07;10.30;99.90
71367;DHT22;60030;52.274;8.040;2022-11-24T09:36:36;10.10;99.90
71367;DHT22;60030;52.274;8.040;2022-11-24T09:39:03;10.00;99.90
71367;DHT22;60030;52.274;8.040;2022-11-24T09:42:06;10.10;99.90
71367;DHT22;60030;52.274;8.040;2022-11-24T09:45:02;10.30;99.90
71367;DHT22;60030;52.274;8.040;2022-11-24T09:47:40;10.40;99.90
71367;DHT22;60030;52.274;8.040;2022-11-24T09:50:14;10.40;99.90
71367;DHT22;60030;52.274;8.040;2022-11-24T09:52:45;10.50;99.90
71367;DHT22;60030;52.274;8.040;2022-11-24T09:55:24;10.60;99.90
71367;DHT22;60030;52.274;8.040;2022-11-24T09:58:00;10.70;99.90
71367;DHT22;60030;52.274;8.040;2022-11-24T10:00:29;10.70;99.90
71367;DHT22;60030;52.274;8.040;2022-11-24T10:02:57;10.70;99.90
71367;DHT22;60030;52.274;8.040;2022-11-24T10:05:26;10.70;99.90
71367;DHT22;60030;52.274;8.040;2022-11-24T10:08:02;10.60;99.90
71367;DHT22;60030;52.274;8.040;2022-11-24T10:10:43;10.70;99.90
71367;DHT22;60030;52.274;8.040;2022-11-24T10:13:27;10.70;99.90
71367;DHT22;60030;52.274;8.040;2022-11-24T10:16:02;10.70;99.90
71367;DHT22;60030;52.274;8.040;2022-11-24T10:18:50;10.90;99.90
71367;DHT22;60030;52.274;8.040;2022-11-24T10:21:33;11.00;99.90
71367;DHT22;60030;52.274;8.040;2022-11-24T10:27:00;11.20;99.90
71367;DHT22;60030;52.274;8.040;2022-11-24T10:29:32;11.20;99.90
71367;DHT22;60030;52.274;8.040;2022-11-24T10:32:06;11.20;99.90
71367;DHT22;60030;52.274;8.040;2022-11-24T10:34:40;11.10;99.90
71367;DHT22;60030;52.274;8.040;2022-11-24T10:37:14;11.10;99.90
71367;DHT22;60030;52.274;8.040;2022-11-24T10:39:49;11.10;99.90
71367;DHT22;60030;52.274;8.040;2022-11-24T10:42:22;11.40;99.90
71367;DHT22;60030;52.274;8.040;2022-11-24T10:44:58;11.40;99.90
71367;DHT22;60030;52.274;8.040;2022-11-24T10:47:27;11.50;99.90
71367;DHT22;60030;52.274;8.040;2022-11-24T10:49:57;11.30;99.90
71367;DHT22;60030;52.274;8.040;2022-11-24T10:52:28;11.30;99.90
71367;DHT22;60030;52.274;8.040;2022-11-24T10:54:57;11.30;99.90
71367;DHT22;60030;52.274;8.040;2022-11-24T10:57:30;11.30;99.90
71367;DHT22;60030;52.274;8.040;2022-11-24T10:59:57;11.30;99.90
71367;DHT22;60030;52.274;8.040;2022-11-24T11:02:28;11.20;99.90
71367;DHT22;60030;52.274;8.040;2022-11-24T11:04:55;11.00;99.90
71367;DHT22;60030;52.274;8.040;2022-11-24T11:07:24;11.00;99.90
71367;DHT22;60030;52.274;8.040;2022-11-24T11:10:19;11.10;99.90
71367;DHT22;60030;52.274;8.040;2022-11-24T11:12:49;11.00;99.90
71367;DHT22;60030;52.274;8.040;2022-11-24T11:15:25;11.00;99.90
71367;DHT22;60030;52.274;8.040;2022-11-24T11:17:56;11.10;99.90
71367;DHT22;60030;52.274;8.040;2022-11-24T11:20:28;11.10;99.90
71367;DHT22;60030;52.274;8.040;2022-11-24T11:22:57;11.20;99.90
71367;DHT22;60030;52.274;8.040;2022-11-24T11:25:30;11.20;99.90
71367;DHT22;60030;52.274;8.040;2022-11-24T11:28:25;11.10;99.90
71367;DHT22;60030;52.274;8.040;2022-11-24T11:31:01;11.30;99.90
71367;DHT22;60030;52.274;8.040;2022-11-24T11:33:32;11.40;99.90
71367;DHT22;60030;52.274;8.040;2022-11-24T11:36:07;11.50;99.90
71367;DHT22;60030;52.274;8.040;2022-11-24T11:38:38;11.50;99.90
71367;DHT22;60030;52.274;8.040;2022-11-24T11:41:13;11.40;99.90
71367;DHT22;60030;52.274;8.040;2022-11-24T11:43:48;11.50;99.90
71367;DHT22;60030;52.274;8.040;2022-11-24T11:46:16;11.40;99.90
71367;DHT22;60030;52.274;8.040;2022-11-24T11:48:44;11.30;99.90
71367;DHT22;60030;52.274;8.040;2022-11-24T11:51:38;11.50;99.90
71367;DHT22;60030;52.274;8.040;2022-11-24T11:54:11;11.60;99.90
71367;DHT22;60030;52.274;8.040;2022-11-24T11:56:43;11.50;99.90
71367;DHT22;60030;52.274;8.040;2022-11-24T11:59:31;11.50;99.90
71367;DHT22;60030;52.274;8.040;2022-11-24T12:02:23;11.20;99.90
71367;DHT22;60030;52.274;8.040;2022-11-24T12:04:58;11.30;99.90
71367;DHT22;60030;52.274;8.040;2022-11-24T12:07:38;11.30;99.90
71367;DHT22;60030;52.274;8.040;2022-11-24T12:10:17;11.20;99.90
71367;DHT22;60030;52.274;8.040;2022-11-24T12:12:58;11.20;99.90
71367;DHT22;60030;52.274;8.040;2022-11-24T12:15:32;11.30;99.90
71367;DHT22;60030;52.274;8.040;2022-11-24T12:18:13;11.50;99.90
71367;DHT22;60030;52.274;8.040;2022-11-24T12:20:54;11.30;99.90
71367;DHT22;60030;52.274;8.040;2022-11-24T12:23:30;11.30;99.90
71367;DHT22;60030;52.274;8.040;2022-11-24T12:26:06;11.40;99.90
71367;DHT22;60030;52.274;8.040;2022-11-24T12:28:45;11.60;99.90
71367;DHT22;60030;52.274;8.040;2022-11-24T12:31:25;11.60;99.90
71367;DHT22;60030;52.274;8.040;2022-11-24T12:34:21;11.60;99.90
71367;DHT22;60030;52.274;8.040;2022-11-24T12:37:00;11.70;99.90
71367;DHT22;60030;52.274;8.040;2022-11-24T12:39:34;11.80;99.90
71367;DHT22;60030;52.274;8.040;2022-11-24T12:42:20;11.70;99.90
71367;DHT22;60030;52.274;8.040;2022-11-24T12:45:21;11.90;99.90
71367;DHT22;60030;52.274;8.040;2022-11-24T12:50:48;11.80;99.90
71367;DHT22;60030;52.274;8.040;2022-11-24T12:53:22;11.90;99.90
71367;DHT22;60030;52.274;8.040;2022-11-24T12:55:50;11.90;99.90
71367;DHT22;60030;52.274;8.040;2022-11-24T12:58:22;12.10;99.90
71367;DHT22;60030;52.274;8.040;2022-11-24T13:01:09;12.10;99.90
71367;DHT22;60030;52.274;8.040;2022-11-24T13:03:44;12.10;99.90
71367;DHT22;60030;52.274;8.040;2022-11-24T13:06:17;12.10;99.90
71367;DHT22;60030;52.274;8.040;2022-11-24T13:08:45;12.00;99.90
71367;DHT22;60030;52.274;8.040;2022-11-24T13:11:34;12.20;99.90
71367;DHT22;60030;52.274;8.040;2022-11-24T13:14:05;12.10;99.90
71367;DHT22;60030;52.274;8.040;2022-11-24T13:16:47;12.20;99.90
71367;DHT22;60030;52.274;8.040;2022-11-24T13:19:18;12.00;99.90
71367;DHT22;60030;52.274;8.040;2022-11-24T13:21:48;11.90;99.90
71367;DHT22;60030;52.274;8.040;2022-11-24T13:24:24;11.90;99.90
71367;DHT22;60030;52.274;8.040;2022-11-24T13:26:54;11.80;99.90
71367;DHT22;60030;52.274;8.040;2022-11-24T13:29:40;11.80;99.90
71367;DHT22;60030;52.274;8.040;2022-11-24T13:35:19;11.80;99.90
71367;DHT22;60030;52.274;8.040;2022-11-24T13:37:48;11.90;99.90
71367;DHT22;60030;52.274;8.040;2022-11-24T13:40:37;12.00;99.90
71367;DHT22;60030;52.274;8.040;2022-11-24T13:43:21;12.20;99.90
71367;DHT22;60030;52.274;8.040;2022-11-24T13:45:51;12.30;99.90
71367;DHT22;60030;52.274;8.040;2022-11-24T13:51:28;11.90;99.90
71367;DHT22;60030;52.274;8.040;2022-11-24T13:53:56;12.10;99.90
71367;DHT22;60030;52.274;8.040;2022-11-24T13:56:27;12.30;99.90
71367;DHT22;60030;52.274;8.040;2022-11-24T13:58:57;12.20;99.90
71367;DHT22;60030;52.274;8.040;2022-11-24T14:01:26;12.00;99.90
71367;DHT22;60030;52.274;8.040;2022-11-24T14:03:58;12.10;99.90
71367;DHT22;60030;52.274;8.040;2022-11-24T14:06:30;12.20;99.90
71367;DHT22;60030;52.274;8.040;2022-11-24T14:09:00;12.30;99.90
71367;DHT22;60030;52.274;8.040;2022-11-24T14:11:29;12.20;99.90
71367;DHT22;60030;52.274;8.040;2022-11-24T14:13:56;12.00;99.90
71367;DHT22;60030;52.274;8.040;2022-11-24T14:16:24;12.10;99.90
71367;DHT22;60030;52.274;8.040;2022-11-24T14:18:51;12.00;99.90
71367;DHT22;60030;52.274;8.040;2022-11-24T14:21:24;12.10;99.90
71367;DHT22;60030;52.274;8.040;2022-11-24T14:23:55;12.10;99.90
71367;DHT22;60030;52.274;8.040;2022-11-24T14:26:32;12.10;99.90
71367;DHT22;60030;52.274;8.040;2022-11-24T14:29:05;12.20;99.90
71367;DHT22;60030;52.274;8.040;2022-11-24T14:31:32;12.20;99.90
71367;DHT22;60030;52.274;8.040;2022-11-24T14:34:13;12.10;99.90
71367;DHT22;60030;52.274;8.040;2022-11-24T14:36:41;12.00;99.90
71367;DHT22;60030;52.274;8.040;2022-11-24T14:39:12;12.10;99.90
71367;DHT22;60030;52.274;8.040;2022-11-24T14:41:41;12.00;99.90
71367;DHT22;60030;52.274;8.040;2022-11-24T14:44:19;12.00;99.90
71367;DHT22;60030;52.274;8.040;2022-11-24T14:46:47;11.90;99.90
71367;DHT22;60030;52.274;8.040;2022-11-24T14:49:19;11.90;99.90
71367;DHT22;60030;52.274;8.040;2022-11-24T14:51:52;12.00;99.90
71367;DHT22;60030;52.274;8.040;2022-11-24T14:54:22;12.00;99.90
71367;DHT22;60030;52.274;8.040;2022-11-24T14:56:59;11.80;99.90
71367;DHT22;60030;52.274;8.040;2022-11-24T14:59:28;11.70;99.90
71367;DHT22;60030;52.274;8.040;2022-11-24T15:01:56;11.80;99.90
71367;DHT22;60030;52.274;8.040;2022-11-24T15:04:25;11.80;99.90
71367;DHT22;60030;52.274;8.040;2022-11-24T15:07:04;11.70;99.90
71367;DHT22;60030;52.274;8.040;2022-11-24T15:09:36;11.70;99.90
71367;DHT22;60030;52.274;8.040;2022-11-24T15:12:06;11.80;99.90
71367;DHT22;60030;52.274;8.040;2022-11-24T15:14:48;11.80;99.90
71367;DHT22;60030;52.274;8.040;2022-11-24T15:17:20;11.80;99.90
71367;DHT22;60030;52.274;8.040;2022-11-24T15:19:51;11.80;99.90
71367;DHT22;60030;52.274;8.040;2022-11-24T15:22:41;11.70;99.90
71367;DHT22;60030;52.274;8.040;2022-11-24T15:25:30;11.60;99.90
71367;DHT22;60030;52.274;8.040;2022-11-24T15:27:58;11.60;99.90
71367;DHT22;60030;52.274;8.040;2022-11-24T15:30:25;11.50;99.90
71367;DHT22;60030;52.274;8.040;2022-11-24T15:32:54;11.40;99.90
71367;DHT22;60030;52.274;8.040;2022-11-24T15:35:22;11.30;99.90
71367;DHT22;60030;52.274;8.040;2022-11-24T15:37:50;11.30;99.90
71367;DHT22;60030;52.274;8.040;2022-11-24T15:40:17;11.10;99.90
71367;DHT22;60030;52.274;8.040;2022-11-24T15:42:51;11.20;99.90
71367;DHT22;60030;52.274;8.040;2022-11-24T15:45:19;11.20;99.90
71367;DHT22;60030;52.274;8.040;2022-11-24T15:47:47;11.10;99.90
71367;DHT22;60030;52.274;8.040;2022-11-24T15:50:14;11.10;99.90
71367;DHT22;60030;52.274;8.040;2022-11-24T15:52:42;11.10;99.90
71367;DHT22;60030;52.274;8.040;2022-11-24T15:55:16;11.10;99.90
71367;DHT22;60030;52.274;8.040;2022-11-24T15:57:45;11.00;99.90
71367;DHT22;60030;52.274;8.040;2022-11-24T16:00:15;10.80;99.90
71367;DHT22;60030;52.274;8.040;2022-11-24T16:02:42;10.80;99.90
71367;DHT22;60030;52.274;8.040;2022-11-24T16:05:10;10.80;99.90
71367;DHT22;60030;52.274;8.040;2022-11-24T16:07:37;10.80;99.90
71367;DHT22;60030;52.274;8.040;2022-11-24T16:10:06;10.80;99.90
71367;DHT22;60030;52.274;8.040;2022-11-24T16:12:33;10.80;99.90